Time;durP1;ratioP1;P1;durP2;ratioP2;P2;SDS_P1;SDS_P2;PMS_P1;PMS_P2;Temp;Humidity;BMP_temperature;BMP_pressure;BME280_temperature;BME280_humidity;BME280_pressure;Samples;Min_cycle;Max_cycle;Signal;HPM_P1;HPM_P2
2022/11/23 00:00:23;;;;;;;19.83;8.25;;;;;;;6.28;100.00;99416.78;6151995;23;20009;-84
2022/11/23 00:02:56;;;;;;;22.80;8.45;;;;;;;6.27;100.00;99417.72;6150959;23;20046;-84
2022/11/23 00:05:21;;;;;;;24.67;9.48;;;;;;;6.26;100.00;99413.38;6125671;23;20005;-85
2022/11/23 00:07:47;;;;;;;22.02;8.43;;;;;;;6.27;100.00;99420.38;6125995;23;20498;-85
2022/11/23 00:10:12;;;;;;;19.95;7.60;;;;;;;6.29;100.00;99428.22;6152271;23;20005;-85
2022/11/23 00:12:38;;;;;;;20.60;8.23;;;;;;;6.28;100.00;99416.78;6127576;23;19989;-85
2022/11/23 00:15:04;;;;;;;25.33;9.27;;;;;;;6.29;100.00;99429.06;6154478;23;20305;-86
2022/11/23 00:17:30;;;;;;;18.75;7.25;;;;;;;6.27;100.00;99417.72;6153240;23;20076;-85
2022/11/23 00:19:55;;;;;;;21.10;7.72;;;;;;;6.29;100.00;99418.47;6152273;23;20016;-85
2022/11/23 00:22:20;;;;;;;17.70;6.70;;;;;;;6.24;100.00;99412.63;6154245;23;20490;-85
2022/11/23 00:24:45;;;;;;;21.48;7.53;;;;;;;6.28;100.00;99419.44;6155883;23;20017;-85
2022/11/23 00:27:11;;;;;;;20.60;6.95;;;;;;;6.27;100.00;99417.72;6124797;23;20012;-85
2022/11/23 00:29:36;;;;;;;17.92;6.80;;;;;;;6.23;100.00;99421.47;6149196;23;20033;-85
2022/11/23 00:32:01;;;;;;;17.23;6.78;;;;;;;6.23;100.00;99414.41;6152541;23;20006;-85
2022/11/23 00:34:27;;;;;;;20.92;6.75;;;;;;;6.31;100.00;99435.13;6152938;23;20080;-85
2022/11/23 00:36:52;;;;;;;15.50;5.93;;;;;;;6.31;100.00;99436.88;6153287;23;20324;-85
2022/11/23 00:39:17;;;;;;;15.70;5.55;;;;;;;6.30;100.00;99438.69;6153060;23;20029;-86
2022/11/23 00:41:42;;;;;;;17.27;5.97;;;;;;;6.29;100.00;99438.78;6149142;23;20447;-85
2022/11/23 00:44:08;;;;;;;16.67;5.75;;;;;;;6.26;100.00;99434.50;6150222;23;20005;-86
2022/11/23 00:46:33;;;;;;;17.83;5.38;;;;;;;6.27;100.00;99432.72;6150191;23;20467;-84
2022/11/23 00:48:59;;;;;;;15.75;5.32;;;;;;;6.29;100.00;99438.78;6154288;23;20020;-85
2022/11/23 00:51:30;;;;;;;17.20;5.95;;;;;;;6.20;100.00;99429.56;6166416;23;20044;-85
2022/11/23 00:53:56;;;;;;;14.30;5.18;;;;;;;6.21;100.00;99425.97;6160083;23;19997;-85
2022/11/23 00:56:21;;;;;;;18.50;5.32;;;;;;;6.28;100.00;99435.28;6160163;23;20060;-85
2022/11/23 00:58:51;;;;;;;15.40;5.65;;;;;;;6.33;100.00;99435.03;6150757;23;20384;-86
2022/11/23 01:01:19;;;;;;;17.27;5.20;;;;;;;6.29;100.00;99429.06;6152514;23;20079;-86
2022/11/23 01:03:50;;;;;;;16.45;5.13;;;;;;;6.29;100.00;99431.69;6153134;23;20009;-84
2022/11/23 01:06:27;;;;;;;15.93;5.20;;;;;;;6.29;100.00;99442.25;6153109;23;20009;-85
2022/11/23 01:08:55;;;;;;;20.95;4.95;;;;;;;6.29;100.00;99447.56;6153171;23;20472;-83
2022/11/23 01:11:22;;;;;;;14.27;4.75;;;;;;;6.31;100.00;99445.69;6151829;23;20336;-85
2022/11/23 01:13:47;;;;;;;17.85;4.82;;;;;;;6.25;100.00;99435.44;6150841;23;20002;-85
2022/11/23 01:16:19;;;;;;;12.82;4.53;;;;;;;6.35;100.00;99449.84;6149509;23;20063;-84
2022/11/23 01:18:44;;;;;;;17.40;4.80;;;;;;;6.32;100.00;99452.69;6151120;23;20440;-85
2022/11/23 01:21:09;;;;;;;15.65;4.38;;;;;;;6.35;100.00;99446.34;6151189;23;20005;-84
2022/11/23 01:23:35;;;;;;;16.35;4.88;;;;;;;6.32;100.00;99444.75;6150908;23;20098;-84
2022/11/23 01:26:07;;;;;;;14.35;4.78;;;;;;;6.38;100.00;99457.59;6150988;23;20012;-84
2022/11/23 01:28:33;;;;;;;14.98;5.28;;;;;;;6.36;100.00;99456.00;6149758;23;20001;-84
2022/11/23 01:31:07;;;;;;;13.85;4.00;;;;;;;6.36;100.00;99451.56;6150741;23;20020;-85
2022/11/23 01:33:33;;;;;;;17.88;5.13;;;;;;;6.39;100.00;99461.94;6150591;23;20037;-85
2022/11/23 01:35:58;;;;;;;13.40;4.30;;;;;;;6.41;100.00;99467.16;6151749;23;20078;-85
2022/11/23 01:38:24;;;;;;;12.93;4.32;;;;;;;6.33;100.00;99454.38;6149584;23;20424;-85
2022/11/23 01:40:49;;;;;;;14.60;4.97;;;;;;;6.43;100.00;99463.47;6149724;23;20592;-85
2022/11/23 01:43:16;;;;;;;13.82;4.40;;;;;;;6.45;100.00;99469.53;6151571;23;20005;-85
2022/11/23 01:45:54;;;;;;;12.35;3.58;;;;;;;6.46;100.00;99468.59;6153065;23;20062;-85
2022/11/23 01:48:25;;;;;;;10.73;4.13;;;;;;;6.49;100.00;99473.72;6152422;23;20081;-86
2022/11/23 01:50:52;;;;;;;14.60;4.00;;;;;;;6.49;100.00;99471.09;6126489;23;20445;-85
2022/11/23 01:53:19;;;;;;;17.02;4.28;;;;;;;6.44;100.00;99453.78;6152122;23;20006;-85
2022/11/23 01:55:47;;;;;;;16.23;4.28;;;;;;;6.52;100.00;99469.19;6151456;23;20450;-84
2022/11/23 01:58:16;;;;;;;11.85;3.80;;;;;;;6.52;100.00;99470.06;6150679;23;20013;-85
2022/11/23 02:00:42;;;;;;;15.32;4.68;;;;;;;6.53;100.00;99466.47;6152850;23;20006;-85
2022/11/23 02:03:08;;;;;;;14.25;4.32;;;;;;;6.57;100.00;99475.09;6152830;23;20010;-85
2022/11/23 02:05:42;;;;;;;11.40;4.60;;;;;;;6.59;100.00;99481.13;6153080;23;20136;-85
2022/11/23 02:08:08;;;;;;;12.32;4.30;;;;;;;6.57;100.00;99480.38;6151377;23;20430;-85
2022/11/23 02:10:34;;;;;;;18.67;4.65;;;;;;;6.54;100.00;99469.97;6148250;23;20101;-86
2022/11/23 02:13:05;;;;;;;12.85;4.22;;;;;;;6.63;100.00;99480.03;6151372;23;20005;-85
2022/11/23 02:15:32;;;;;;;13.18;4.35;;;;;;;6.60;100.00;99480.19;6149741;23;20081;-85
2022/11/23 02:17:58;;;;;;;12.38;4.65;;;;;;;6.63;100.00;99491.44;6150504;23;20064;-85
2022/11/23 02:20:24;;;;;;;14.70;4.68;;;;;;;6.61;100.00;99482.75;6151613;23;20056;-85
2022/11/23 02:23:14;;;;;;;17.17;4.78;;;;;;;6.65;100.00;99494.88;6152757;23;20001;-85
2022/11/23 02:25:43;;;;;;;13.02;4.28;;;;;;;6.64;100.00;99493.16;6122480;23;20431;-86
2022/11/23 02:28:10;;;;;;;13.65;4.43;;;;;;;6.66;100.00;99490.44;6152223;23;20009;-85
2022/11/23 02:30:38;;;;;;;14.73;4.72;;;;;;;6.62;100.00;99487.09;6126404;23;20012;-86
2022/11/23 02:33:05;;;;;;;12.77;4.60;;;;;;;6.64;100.00;99490.50;6150014;23;20001;-84
2022/11/23 02:35:30;;;;;;;15.70;4.65;;;;;;;6.58;100.00;99482.09;6148688;23;20438;-86
2022/11/23 02:37:56;;;;;;;16.08;4.53;;;;;;;6.62;100.00;99499.47;6151767;23;20005;-86
2022/11/23 02:40:30;;;;;;;16.17;5.22;;;;;;;6.57;100.00;99494.44;6152594;23;20450;-86
2022/11/23 02:42:56;;;;;;;14.38;4.93;;;;;;;6.60;100.00;99496.06;6149762;23;20012;-86
2022/11/23 02:45:33;;;;;;;15.32;5.10;;;;;;;6.62;100.00;99489.75;6149441;23;20326;-85
2022/11/23 02:47:58;;;;;;;18.85;5.60;;;;;;;6.53;100.00;99477.06;6124445;23;20002;-85
2022/11/23 02:50:23;;;;;;;17.27;5.53;;;;;;;6.62;100.00;99496.84;6150237;23;20013;-84
2022/11/23 02:52:49;;;;;;;14.32;4.75;;;;;;;6.64;100.00;99497.59;6150467;23;20376;-84
2022/11/23 02:55:14;;;;;;;17.75;5.40;;;;;;;6.60;100.00;99488.13;6149457;23;20002;-85
2022/11/23 02:57:39;;;;;;;15.13;4.78;;;;;;;6.62;100.00;99494.19;6150939;23;20483;-84
2022/11/23 03:00:05;;;;;;;18.92;4.95;;;;;;;6.62;100.00;99496.84;6125834;23;20173;-84
2022/11/23 03:02:31;;;;;;;19.40;5.18;;;;;;;6.53;100.00;99484.13;6152571;23;20004;-84
2022/11/23 03:04:56;;;;;;;16.48;5.07;;;;;;;6.55;100.00;99490.19;6151414;23;20001;-85
2022/11/23 03:07:21;;;;;;;16.95;5.30;;;;;;;6.56;100.00;99499.81;6165350;23;20005;-84
2022/11/23 03:09:46;;;;;;;16.33;5.18;;;;;;;6.55;100.00;99491.03;6166475;23;20033;-84
2022/11/23 03:12:12;;;;;;;17.98;4.80;;;;;;;6.60;100.00;99496.91;6168746;23;20049;-85
2022/11/23 03:14:37;;;;;;;16.50;5.05;;;;;;;6.59;100.00;99497.84;6160542;23;20370;-85
2022/11/23 03:17:04;;;;;;;15.10;4.47;;;;;;;6.59;100.00;99495.19;6151909;23;20012;-84
2022/11/23 03:19:29;;;;;;;14.18;4.88;;;;;;;6.54;100.00;99491.13;6153141;23;20009;-85
2022/11/23 03:21:54;;;;;;;21.38;5.47;;;;;;;6.56;100.00;99503.28;6154785;23;20057;-85
2022/11/23 03:24:20;;;;;;;18.20;4.90;;;;;;;6.59;100.00;99503.13;6154205;23;20010;-85
2022/11/23 03:26:45;;;;;;;20.65;5.45;;;;;;;6.59;100.00;99499.63;6128622;23;20005;-86
2022/11/23 03:29:10;;;;;;;25.38;5.35;;;;;;;6.65;100.00;99501.97;6154462;23;20005;-86
2022/11/23 03:31:35;;;;;;;14.07;4.18;;;;;;;6.61;100.00;99503.91;6153619;23;20010;-85
2022/11/23 03:34:01;;;;;;;21.33;4.85;;;;;;;6.62;100.00;99502.97;6153187;23;20001;-86
2022/11/23 03:36:26;;;;;;;14.80;4.40;;;;;;;6.66;100.00;99508.94;6122888;23;20005;-87
2022/11/23 03:38:51;;;;;;;18.08;4.80;;;;;;;6.68;100.00;99501.75;6151278;23;20469;-86
2022/11/23 03:41:16;;;;;;;14.10;4.78;;;;;;;6.65;100.00;99501.97;6153512;23;20325;-84
2022/11/23 03:43:42;;;;;;;13.13;4.60;;;;;;;6.63;100.00;99504.66;6150451;23;20001;-85
2022/11/23 03:46:07;;;;;;;13.90;4.50;;;;;;;6.67;100.00;99500.91;6123583;23;20013;-84
2022/11/23 03:48:32;;;;;;;14.63;4.78;;;;;;;6.65;100.00;99499.31;6152986;23;20025;-86
2022/11/23 03:50:58;;;;;;;11.10;4.18;;;;;;;6.68;100.00;99501.75;6156913;23;20092;-85
2022/11/23 03:53:23;;;;;;;17.73;4.70;;;;;;;6.69;100.00;99506.13;6156107;23;20010;-84
2022/11/23 03:55:48;;;;;;;14.93;4.75;;;;;;;6.70;100.00;99507.84;6160067;23;20005;-85
2022/11/23 03:58:14;;;;;;;12.25;4.00;;;;;;;6.63;100.00;99502.03;6170445;23;20032;-86
2022/11/23 04:00:39;;;;;;;12.23;3.85;;;;;;;6.65;100.00;99509.88;6161581;23;20077;-85
2022/11/23 04:03:05;;;;;;;16.55;4.30;;;;;;;6.55;100.00;99498.09;6149376;23;20013;-85
2022/11/23 04:05:30;;;;;;;16.70;4.97;;;;;;;6.64;100.00;99505.50;6148628;23;20005;-85
2022/11/23 04:07:55;;;;;;;15.82;5.03;;;;;;;6.56;100.00;99505.09;6122624;23;20020;-85
2022/11/23 04:10:21;;;;;;;14.77;4.18;;;;;;;6.49;100.00;99497.50;6150717;23;20005;-85
2022/11/23 04:12:50;;;;;;;16.83;4.43;;;;;;;6.56;100.00;99510.38;6126247;23;20498;-85
2022/11/23 04:15:16;;;;;;;15.70;4.82;;;;;;;6.54;100.00;99509.63;6150821;23;20467;-86
2022/11/23 04:17:41;;;;;;;17.17;4.45;;;;;;;6.53;100.00;99510.56;6152941;23;20006;-85
2022/11/23 04:20:06;;;;;;;15.23;4.78;;;;;;;6.54;100.00;99513.13;6153086;23;20064;-86
2022/11/23 04:22:32;;;;;;;17.25;5.18;;;;;;;6.54;100.00;99506.97;6152556;23;20073;-85
2022/11/23 04:24:57;;;;;;;15.88;5.00;;;;;;;6.55;100.00;99500.75;6125303;23;20473;-85
2022/11/23 04:27:23;;;;;;;17.90;5.43;;;;;;;6.56;100.00;99508.59;6152824;23;20001;-85
2022/11/23 04:29:48;;;;;;;16.83;5.00;;;;;;;6.52;100.00;99499.16;6152021;23;20013;-85
2022/11/23 04:32:13;;;;;;;17.60;5.15;;;;;;;6.54;100.00;99507.84;6152535;23;20005;-85
2022/11/23 04:34:38;;;;;;;14.15;5.07;;;;;;;6.50;100.00;99514.22;6153858;23;20024;-86
2022/11/23 04:37:04;;;;;;;14.18;4.53;;;;;;;6.47;100.00;99515.22;6151820;23;20009;-86
2022/11/23 04:39:29;;;;;;;17.48;5.20;;;;;;;6.46;100.00;99510.88;6152441;23;20359;-86
2022/11/23 04:41:54;;;;;;;18.65;4.95;;;;;;;6.44;100.00;99509.28;6152689;23;20467;-86
2022/11/23 04:44:20;;;;;;;15.00;4.57;;;;;;;6.34;100.00;99490.41;6125622;23;20041;-86
2022/11/23 04:46:46;;;;;;;13.65;4.65;;;;;;;6.31;100.00;99497.66;6128425;23;20008;-84
2022/11/23 04:49:11;;;;;;;22.17;5.43;;;;;;;6.32;100.00;99512.59;6128681;23;20013;-85
2022/11/23 04:51:36;;;;;;;15.73;4.78;;;;;;;6.21;100.00;99502.59;6154073;23;20091;-85
2022/11/23 04:54:01;;;;;;;15.07;4.65;;;;;;;6.19;100.00;99507.13;6154257;23;20008;-85
2022/11/23 04:56:27;;;;;;;13.05;4.05;;;;;;;6.12;100.00;99508.38;6154634;23;20062;-86
2022/11/23 04:58:52;;;;;;;15.88;5.00;;;;;;;5.98;100.00;99502.06;6155594;23;20016;-85
2022/11/23 05:01:17;;;;;;;15.63;5.20;;;;;;;5.95;100.00;99506.66;6154257;23;20364;-86
2022/11/23 05:03:42;;;;;;;17.88;6.00;;;;;;;5.85;100.00;99502.75;6130370;23;20009;-86
2022/11/23 05:06:08;;;;;;;15.90;4.68;;;;;;;5.82;100.00;99505.56;6156714;23;20005;-86
2022/11/23 05:08:33;;;;;;;15.60;5.32;;;;;;;5.75;100.00;99513.78;6153568;23;20009;-85
2022/11/23 05:10:59;;;;;;;25.45;5.88;;;;;;;5.72;100.00;99508.66;6150990;23;20124;-85
2022/11/23 05:13:24;;;;;;;16.35;5.20;;;;;;;5.68;100.00;99500.97;6148869;23;20335;-86
2022/11/23 05:15:49;;;;;;;18.52;4.80;;;;;;;5.66;100.00;99510.78;6147636;23;20001;-86
2022/11/23 05:18:14;;;;;;;17.13;4.57;;;;;;;5.67;100.00;99505.41;6151235;23;20001;-86
2022/11/23 05:20:40;;;;;;;18.17;4.93;;;;;;;5.68;100.00;99504.47;6149755;23;20024;-86
2022/11/23 05:23:06;;;;;;;20.40;5.40;;;;;;;5.76;100.00;99512.00;6147091;23;20051;-86
2022/11/23 05:25:32;;;;;;;16.60;4.32;;;;;;;5.72;100.00;99497.25;6172581;23;19999;-85
2022/11/23 05:27:57;;;;;;;17.73;5.20;;;;;;;5.84;100.00;99507.16;6174870;23;19993;-86
2022/11/23 05:30:23;;;;;;;17.83;4.88;;;;;;;5.84;100.00;99504.53;6175675;23;21124;-87
2022/11/23 05:32:48;;;;;;;17.50;4.68;;;;;;;5.92;100.00;99509.44;6157357;23;20360;-86
2022/11/23 05:35:14;;;;;;;17.00;5.03;;;;;;;5.95;100.00;99511.94;6156560;23;20040;-86
2022/11/23 05:37:40;;;;;;;19.48;5.38;;;;;;;5.97;100.00;99513.53;6154656;23;20009;-84
2022/11/23 05:40:07;;;;;;;17.83;4.88;;;;;;;6.01;100.00;99510.75;6154871;23;20021;-86
2022/11/23 05:42:32;;;;;;;13.07;4.07;;;;;;;6.01;100.00;99505.47;6127037;23;20005;-86
2022/11/23 05:44:57;;;;;;;16.70;4.53;;;;;;;6.04;100.00;99507.94;6153495;23;20443;-86
2022/11/23 05:47:23;;;;;;;17.67;4.18;;;;;;;5.96;100.00;99509.19;6151982;23;20006;-85
2022/11/23 05:49:49;;;;;;;19.50;4.35;;;;;;;5.99;100.00;99503.75;6150493;23;20431;-85
2022/11/23 05:52:15;;;;;;;16.33;4.40;;;;;;;5.96;100.00;99503.91;6125292;23;20006;-84
2022/11/23 05:54:41;;;;;;;16.23;4.38;;;;;;;6.02;100.00;99500.13;6151267;23;20005;-85
2022/11/23 05:57:06;;;;;;;14.82;4.40;;;;;;;6.07;100.00;99515.72;6128107;23;20455;-86
2022/11/23 05:59:31;;;;;;;18.45;4.00;;;;;;;6.06;100.00;99514.88;6153253;23;20016;-84
2022/11/23 06:01:56;;;;;;;18.98;5.03;;;;;;;6.05;100.00;99512.28;6153733;23;20001;-84
2022/11/23 06:04:22;;;;;;;19.88;5.07;;;;;;;6.03;100.00;99514.16;6153159;23;20013;-86
2022/11/23 06:06:47;;;;;;;18.98;4.63;;;;;;;5.98;100.00;99506.50;6154023;23;20301;-86
2022/11/23 06:09:12;;;;;;;19.10;4.80;;;;;;;5.93;100.00;99503.22;6153527;23;20005;-86
2022/11/23 06:11:38;;;;;;;19.75;4.78;;;;;;;5.99;100.00;99511.69;6152976;23;20008;-85
2022/11/23 06:14:03;;;;;;;16.70;4.88;;;;;;;6.02;100.00;99515.09;6127636;23;20009;-85
2022/11/23 06:16:28;;;;;;;14.70;5.03;;;;;;;6.05;100.00;99509.66;6126994;23;20039;-85
2022/11/23 06:18:53;;;;;;;18.27;4.32;;;;;;;5.92;100.00;99514.72;6150086;23;20029;-85
2022/11/23 06:21:19;;;;;;;15.20;4.50;;;;;;;5.88;100.00;99514.00;6150517;23;20001;-84
2022/11/23 06:23:47;;;;;;;19.63;4.97;;;;;;;5.88;100.00;99519.28;6149693;23;20128;-85
2022/11/23 06:26:12;;;;;;;19.23;5.30;;;;;;;5.83;100.00;99518.69;6123435;23;20380;-85
2022/11/23 06:28:38;;;;;;;19.73;4.70;;;;;;;5.87;100.00;99529.94;6150026;23;20009;-86
2022/11/23 06:31:05;;;;;;;19.70;4.40;;;;;;;5.82;100.00;99527.53;6152387;23;20100;-84
2022/11/23 06:33:31;;;;;;;19.92;4.80;;;;;;;5.87;100.00;99527.28;6152783;23;20368;-85
2022/11/23 06:35:59;;;;;;;23.15;4.45;;;;;;;5.85;100.00;99529.16;6152347;23;19989;-85
2022/11/23 06:38:25;;;;;;;16.25;5.07;;;;;;;5.86;100.00;99529.09;6150316;23;20001;-85
2022/11/23 06:40:51;;;;;;;21.08;4.97;;;;;;;5.83;100.00;99520.47;6149765;23;20076;-84
2022/11/23 06:43:16;;;;;;;19.08;4.75;;;;;;;5.85;100.00;99537.94;6150347;23;20051;-86
2022/11/23 06:45:41;;;;;;;16.15;4.65;;;;;;;5.81;100.00;99520.56;6152083;23;20088;-86
2022/11/23 06:48:07;;;;;;;15.05;4.18;;;;;;;5.79;100.00;99525.06;6150615;23;20339;-86
2022/11/23 06:50:32;;;;;;;15.77;4.38;;;;;;;5.81;100.00;99539.03;6149275;23;20144;-86
2022/11/23 06:52:57;;;;;;;15.68;4.03;;;;;;;5.79;100.00;99534.75;6150263;23;20561;-86
2022/11/23 06:55:24;;;;;;;18.63;4.15;;;;;;;5.74;100.00;99535.84;6148801;23;20005;-86
2022/11/23 06:57:50;;;;;;;16.35;3.88;;;;;;;5.61;100.00;99536.56;6149653;23;20437;-86
2022/11/23 07:00:19;;;;;;;18.67;4.90;;;;;;;5.61;100.00;99555.06;6148918;23;20029;-85
2022/11/23 07:02:52;;;;;;;20.35;4.30;;;;;;;5.53;100.00;99554.59;6149351;23;20025;-86
2022/11/23 07:05:17;;;;;;;12.95;3.88;;;;;;;5.43;100.00;99548.91;6148921;23;20006;-87
2022/11/23 07:07:43;;;;;;;19.30;4.25;;;;;;;5.36;100.00;99547.50;6150820;23;20312;-87
2022/11/23 07:10:08;;;;;;;14.63;4.20;;;;;;;5.29;100.00;99552.22;6149192;23;20059;-87
2022/11/23 07:12:33;;;;;;;13.20;3.90;;;;;;;5.27;100.00;99558.50;6149725;23;20012;-87
2022/11/23 07:14:59;;;;;;;18.25;4.70;;;;;;;5.24;100.00;99564.81;6150510;23;20001;-87
2022/11/23 07:17:24;;;;;;;23.20;5.40;;;;;;;5.18;100.00;99563.34;6154076;23;19997;-86
2022/11/23 07:19:49;;;;;;;20.08;5.18;;;;;;;5.14;100.00;99552.97;6152370;23;20080;-87
2022/11/23 07:22:15;;;;;;;18.55;5.10;;;;;;;5.15;100.00;99562.63;6126366;23;20015;-85
2022/11/23 07:24:40;;;;;;;18.70;4.55;;;;;;;5.17;100.00;99579.22;6153317;23;20006;-85
2022/11/23 07:27:05;;;;;;;18.20;3.90;;;;;;;5.11;100.00;99574.25;6155695;23;20380;-86
2022/11/23 07:29:31;;;;;;;13.95;4.82;;;;;;;5.14;100.00;99579.34;6154771;23;20029;-87
2022/11/23 07:31:56;;;;;;;14.38;4.80;;;;;;;5.13;100.00;99583.78;6158642;23;20491;-86
2022/11/23 07:34:21;;;;;;;13.23;4.47;;;;;;;5.13;100.00;99585.56;6160648;23;20064;-86
2022/11/23 07:36:46;;;;;;;16.20;4.40;;;;;;;5.09;100.00;99592.78;6157530;23;20344;-85
2022/11/23 07:39:12;;;;;;;18.73;5.03;;;;;;;5.04;100.00;99578.97;6160075;23;20052;-86
2022/11/23 07:41:37;;;;;;;16.23;4.13;;;;;;;5.06;100.00;99586.78;6173559;23;20044;-86
2022/11/23 07:44:03;;;;;;;20.70;5.00;;;;;;;5.00;100.00;99591.44;6141708;23;20013;-87
2022/11/23 07:46:28;;;;;;;15.95;4.07;;;;;;;5.06;100.00;99597.34;6171592;23;20005;-86
2022/11/23 07:48:58;;;;;;;20.00;4.97;;;;;;;5.04;100.00;99609.75;6137993;23;20009;-86
2022/11/23 07:51:23;;;;;;;14.35;4.55;;;;;;;5.01;100.00;99605.47;6134604;23;20017;-85
2022/11/23 07:53:49;;;;;;;17.17;4.97;;;;;;;5.03;100.00;99610.69;6157119;23;20013;-87
2022/11/23 07:56:14;;;;;;;16.60;4.38;;;;;;;5.05;100.00;99609.66;6153285;23;20005;-87
2022/11/23 07:58:39;;;;;;;18.88;4.95;;;;;;;5.04;100.00;99615.03;6154277;23;20001;-86
2022/11/23 08:01:04;;;;;;;18.25;4.97;;;;;;;5.02;100.00;99608.94;6153578;23;20012;-87
2022/11/23 08:03:30;;;;;;;19.15;4.47;;;;;;;5.00;100.00;99609.88;6152247;23;20088;-84
2022/11/23 08:05:55;;;;;;;18.63;4.47;;;;;;;4.98;100.00;99606.50;6150431;23;20010;-86
2022/11/23 08:08:20;;;;;;;16.80;4.53;;;;;;;5.06;100.00;99615.78;6149423;23;20037;-85
2022/11/23 08:10:45;;;;;;;17.80;4.78;;;;;;;5.07;100.00;99620.16;6151911;23;20104;-86
2022/11/23 08:13:11;;;;;;;16.38;4.93;;;;;;;5.05;100.00;99617.59;6150331;23;20005;-86
2022/11/23 08:15:36;;;;;;;15.18;4.28;;;;;;;5.08;100.00;99614.81;6148772;23;20095;-85
2022/11/23 08:18:02;;;;;;;17.75;4.57;;;;;;;5.08;100.00;99619.22;6150688;23;20012;-86
2022/11/23 08:20:29;;;;;;;14.50;4.57;;;;;;;5.10;100.00;99609.44;6151881;23;20028;-85
2022/11/23 08:22:55;;;;;;;17.75;5.15;;;;;;;5.14;100.00;99618.91;6152107;23;20072;-86
2022/11/23 08:25:24;;;;;;;13.85;4.25;;;;;;;5.14;100.00;99609.25;6153285;23;20056;-86
2022/11/23 08:27:59;;;;;;;16.00;4.80;;;;;;;5.20;100.00;99623.91;6152978;23;20016;-85
2022/11/23 08:30:26;;;;;;;15.95;5.00;;;;;;;5.19;100.00;99622.22;6153754;23;20459;-85
2022/11/23 08:32:51;;;;;;;15.20;4.85;;;;;;;5.18;100.00;99610.81;6152518;23;20035;-86
2022/11/23 08:35:16;;;;;;;17.13;4.68;;;;;;;5.24;100.00;99618.41;6124178;23;20025;-86
2022/11/23 08:37:42;;;;;;;18.75;4.78;;;;;;;5.28;100.00;99623.56;6125569;23;20060;-87
2022/11/23 08:40:07;;;;;;;15.40;4.20;;;;;;;5.34;100.00;99617.97;6152002;23;20001;-86
2022/11/23 08:42:33;;;;;;;17.65;4.68;;;;;;;5.32;100.00;99611.91;6148312;23;20439;-86
2022/11/23 08:44:59;;;;;;;16.63;4.63;;;;;;;5.43;100.00;99628.06;6148568;23;20005;-86
2022/11/23 08:47:24;;;;;;;13.80;4.13;;;;;;;5.40;100.00;99625.59;6150809;23;20009;-86
2022/11/23 08:49:50;;;;;;;13.82;3.70;;;;;;;5.45;100.00;99634.97;6150601;23;20658;-86
2022/11/23 08:52:15;;;;;;;14.07;4.75;;;;;;;5.42;100.00;99621.94;6151589;23;20072;-86
2022/11/23 08:54:40;;;;;;;15.63;4.32;;;;;;;5.43;100.00;99621.03;6149393;23;20024;-87
2022/11/23 08:57:05;;;;;;;12.15;4.25;;;;;;;5.53;100.00;99633.75;6151294;23;20013;-86
2022/11/23 08:59:31;;;;;;;15.50;4.07;;;;;;;5.52;100.00;99624.13;6127207;23;20080;-86
2022/11/23 09:01:56;;;;;;;14.75;4.07;;;;;;;5.62;100.00;99639.44;6150677;23;20002;-86
2022/11/23 09:04:21;;;;;;;15.63;4.22;;;;;;;5.67;100.00;99631.28;6151866;23;19997;-86
2022/11/23 09:06:47;;;;;;;14.90;4.05;;;;;;;5.66;100.00;99621.66;6150710;23;20013;-86
2022/11/23 09:09:12;;;;;;;15.48;4.80;;;;;;;5.67;100.00;99629.50;6126664;23;20436;-85
2022/11/23 09:11:37;;;;;;;15.75;3.90;;;;;;;5.69;100.00;99617.09;6151944;23;20010;-85
2022/11/23 09:14:03;;;;;;;15.90;4.32;;;;;;;5.71;100.00;99617.00;6153430;23;20009;-85
2022/11/23 09:16:28;;;;;;;14.85;4.35;;;;;;;5.68;100.00;99622.41;6152838;23;20004;-86
2022/11/23 09:18:56;;;;;;;11.75;4.10;;;;;;;5.68;100.00;99612.72;6152155;23;20029;-85
2022/11/23 09:21:23;;;;;;;15.13;4.85;;;;;;;5.72;100.00;99618.69;6152551;23;20009;-86
2022/11/23 09:23:48;;;;;;;12.95;3.78;;;;;;;5.74;100.00;99612.41;6151497;23;20074;-86
2022/11/23 09:26:14;;;;;;;16.50;4.45;;;;;;;5.78;100.00;99614.91;6152293;23;20078;-85
2022/11/23 09:28:39;;;;;;;12.10;3.50;;;;;;;5.81;100.00;99609.44;6150999;23;19997;-86
2022/11/23 09:31:04;;;;;;;16.40;4.15;;;;;;;5.86;100.00;99604.81;6150847;23;20010;-86
2022/11/23 09:33:30;;;;;;;11.55;3.63;;;;;;;5.85;100.00;99597.81;6150826;23;20012;-85
2022/11/23 09:36:00;;;;;;;11.75;3.58;;;;;;;5.86;100.00;99589.81;6152668;23;20005;-86
2022/11/23 09:38:26;;;;;;;15.30;4.43;;;;;;;5.79;100.00;99582.28;6151004;23;20060;-86
2022/11/23 09:41:06;;;;;;;13.25;4.25;;;;;;;5.91;100.00;99593.06;6152078;23;19990;-86
2022/11/23 09:43:55;;;;;;;11.98;3.80;;;;;;;5.90;100.00;99586.09;6151792;23;20724;-86
2022/11/23 09:46:26;;;;;;;13.35;3.80;;;;;;;5.99;100.00;99584.78;6153054;23;20013;-85
2022/11/23 09:49:08;;;;;;;14.18;4.20;;;;;;;6.02;100.00;99591.69;6153280;23;20503;-85
2022/11/23 09:51:37;;;;;;;15.18;4.30;;;;;;;6.06;100.00;99580.03;6150884;23;20013;-85
2022/11/23 09:54:21;;;;;;;10.90;4.03;;;;;;;6.02;100.00;99579.34;6154207;23;20013;-84
2022/11/23 09:56:49;;;;;;;12.10;3.75;;;;;;;6.03;100.00;99583.69;6126379;23;20009;-83
2022/11/23 09:59:33;;;;;;;11.70;3.70;;;;;;;6.04;100.00;99576.63;6153351;23;20001;-85
2022/11/23 10:01:59;;;;;;;12.50;4.03;;;;;;;6.02;100.00;99570.56;6159981;23;20080;-85
2022/11/23 10:04:28;;;;;;;13.50;3.90;;;;;;;6.01;100.00;99572.34;6166879;23;20045;-84
2022/11/23 10:06:57;;;;;;;12.57;3.50;;;;;;;6.03;100.00;99545.88;6161455;23;20005;-85
2022/11/23 10:09:54;;;;;;;14.27;3.10;;;;;;;6.10;100.00;99558.66;6152363;23;20013;-85
2022/11/23 10:12:28;;;;;;;12.60;3.63;;;;;;;6.09;100.00;99548.16;6151907;23;20052;-85
2022/11/23 10:15:03;;;;;;;15.15;3.85;;;;;;;6.15;100.00;99551.34;6152741;23;20013;-84
2022/11/23 10:17:50;;;;;;;11.60;3.50;;;;;;;6.15;100.00;99554.00;6154765;23;20005;-85
2022/11/23 10:20:36;;;;;;;10.20;3.17;;;;;;;6.20;100.00;99535.25;6153272;23;20016;-85
2022/11/23 10:23:07;;;;;;;9.25;2.88;;;;;;;6.23;100.00;99543.03;6126820;23;20013;-84
2022/11/23 10:25:39;;;;;;;9.80;3.50;;;;;;;6.26;100.00;99547.28;6125301;23;20037;-84
2022/11/23 10:28:17;;;;;;;15.45;3.33;;;;;;;6.28;100.00;99534.84;6151322;23;20020;-84
2022/11/23 10:30:52;;;;;;;9.35;3.40;;;;;;;6.27;100.00;99527.84;6124064;23;20009;-85
2022/11/23 10:33:38;;;;;;;9.38;3.45;;;;;;;6.31;100.00;99532.91;6148971;23;20068;-84
2022/11/23 10:36:04;;;;;;;9.38;3.47;;;;;;;6.35;100.00;99528.28;6150562;23;20091;-86
2022/11/23 10:38:29;;;;;;;8.80;3.35;;;;;;;6.36;100.00;99530.00;6150473;23;20009;-86
2022/11/23 10:40:54;;;;;;;14.35;3.60;;;;;;;6.47;100.00;99533.75;6149370;23;20029;-86
2022/11/23 10:43:24;;;;;;;11.20;3.15;;;;;;;6.51;100.00;99520.34;6148013;23;20012;-83
2022/11/23 10:45:50;;;;;;;8.45;2.90;;;;;;;6.62;100.00;99532.06;6146633;23;20114;-86
2022/11/23 10:48:33;;;;;;;14.43;3.38;;;;;;;6.67;100.00;99519.41;6150774;23;20445;-86
2022/11/23 10:51:20;;;;;;;8.00;3.00;;;;;;;6.71;100.00;99530.69;6150283;23;20191;-85
2022/11/23 10:53:53;;;;;;;12.73;3.20;;;;;;;6.87;100.00;99533.34;6152114;23;20060;-86
2022/11/23 10:56:18;;;;;;;13.68;3.08;;;;;;;6.99;99.28;99532.63;6151874;23;20450;-85
2022/11/23 10:58:45;;;;;;;11.27;3.25;;;;;;;7.18;98.32;99525.31;6151638;23;20009;-86
2022/11/23 11:01:23;;;;;;;11.15;3.28;;;;;;;7.16;98.18;99507.84;6150511;23;20084;-85
2022/11/23 11:03:51;;;;;;;9.35;2.85;;;;;;;7.21;98.77;99519.03;6150216;23;20029;-86
2022/11/23 11:06:29;;;;;;;12.95;3.53;;;;;;;7.27;97.47;99513.34;6125087;23;20012;-85
2022/11/23 11:08:56;;;;;;;9.05;3.05;;;;;;;7.30;97.16;99507.88;6150914;23;20028;-85
2022/11/23 11:11:25;;;;;;;12.10;2.92;;;;;;;7.36;96.48;99506.69;6149662;23;20013;-85
2022/11/23 11:14:00;;;;;;;8.20;2.78;;;;;;;7.33;96.88;99504.22;6151008;23;20006;-85
2022/11/23 11:16:30;;;;;;;7.10;2.92;;;;;;;7.41;96.19;99491.38;6125622;23;20335;-85
2022/11/23 11:18:56;;;;;;;8.63;2.80;;;;;;;7.56;97.03;99502.84;6151961;23;20289;-85
2022/11/23 11:21:29;;;;;;;14.75;2.95;;;;;;;7.74;96.15;99509.69;6124620;23;20013;-86
2022/11/23 11:24:19;;;;;;;8.95;3.30;;;;;;;7.88;95.39;99515.00;6148298;23;20009;-85
2022/11/23 11:26:51;;;;;;;9.98;2.90;;;;;;;8.05;94.71;99498.06;6123941;23;20012;-84